sensor_id;sensor_type;location;lat;lon;timestamp;temperature;humidity
48936;DHT22;34745;52.276;10.528;2023-02-15T00:02:02;3.10;99.90
48936;DHT22;34745;52.276;10.528;2023-02-15T00:04:29;3.00;99.90
48936;DHT22;34745;52.276;10.528;2023-02-15T00:07:16;3.00;99.90
48936;DHT22;34745;52.276;10.528;2023-02-15T00:09:45;3.00;99.90
48936;DHT22;34745;52.276;10.528;2023-02-15T00:12:12;3.00;99.90
48936;DHT22;34745;52.276;10.528;2023-02-15T00:14:39;3.10;99.90
48936;DHT22;34745;52.276;10.528;2023-02-15T00:17:06;3.00;99.90
48936;DHT22;34745;52.276;10.528;2023-02-15T00:19:33;3.00;99.90
48936;DHT22;34745;52.276;10.528;2023-02-15T00:22:00;2.90;99.90
48936;DHT22;34745;52.276;10.528;2023-02-15T00:24:29;2.90;99.90
48936;DHT22;34745;52.276;10.528;2023-02-15T00:26:56;2.80;99.90
48936;DHT22;34745;52.276;10.528;2023-02-15T00:29:23;2.70;99.90
48936;DHT22;34745;52.276;10.528;2023-02-15T00:31:51;2.60;99.90
48936;DHT22;34745;52.276;10.528;2023-02-15T00:34:21;2.60;99.90
48936;DHT22;34745;52.276;10.528;2023-02-15T00:36:49;2.60;99.90
48936;DHT22;34745;52.276;10.528;2023-02-15T00:39:17;2.60;99.90
48936;DHT22;34745;52.276;10.528;2023-02-15T00:41:46;2.60;99.90
48936;DHT22;34745;52.276;10.528;2023-02-15T00:44:14;2.60;99.90
48936;DHT22;34745;52.276;10.528;2023-02-15T00:46:41;2.60;99.90
48936;DHT22;34745;52.276;10.528;2023-02-15T00:49:09;2.50;99.90
48936;DHT22;34745;52.276;10.528;2023-02-15T00:51:36;2.50;99.90
48936;DHT22;34745;52.276;10.528;2023-02-15T00:54:03;2.50;99.90
48936;DHT22;34745;52.276;10.528;2023-02-15T00:56:30;2.50;99.90
48936;DHT22;34745;52.276;10.528;2023-02-15T00:58:59;2.50;99.90
48936;DHT22;34745;52.276;10.528;2023-02-15T01:01:26;2.50;99.90
48936;DHT22;34745;52.276;10.528;2023-02-15T01:03:53;2.40;99.90
48936;DHT22;34745;52.276;10.528;2023-02-15T01:06:20;2.40;99.90
48936;DHT22;34745;52.276;10.528;2023-02-15T01:08:48;2.40;99.90
48936;DHT22;34745;52.276;10.528;2023-02-15T01:11:16;2.40;99.90
48936;DHT22;34745;52.276;10.528;2023-02-15T01:13:52;2.30;99.90
48936;DHT22;34745;52.276;10.528;2023-02-15T01:16:21;2.30;99.90
48936;DHT22;34745;52.276;10.528;2023-02-15T01:18:49;2.30;99.90
48936;DHT22;34745;52.276;10.528;2023-02-15T01:21:18;2.30;99.90
48936;DHT22;34745;52.276;10.528;2023-02-15T01:23:46;2.20;99.90
48936;DHT22;34745;52.276;10.528;2023-02-15T01:26:14;2.10;99.90
48936;DHT22;34745;52.276;10.528;2023-02-15T01:28:42;2.10;99.90
48936;DHT22;34745;52.276;10.528;2023-02-15T01:31:10;2.10;99.90
48936;DHT22;34745;52.276;10.528;2023-02-15T01:33:40;2.00;99.90
48936;DHT22;34745;52.276;10.528;2023-02-15T01:36:07;2.00;99.90
48936;DHT22;34745;52.276;10.528;2023-02-15T01:38:35;1.90;99.90
48936;DHT22;34745;52.276;10.528;2023-02-15T01:41:03;1.90;99.90
48936;DHT22;34745;52.276;10.528;2023-02-15T01:43:50;1.90;99.90
48936;DHT22;34745;52.276;10.528;2023-02-15T01:46:19;1.90;99.90
48936;DHT22;34745;52.276;10.528;2023-02-15T01:48:52;1.90;99.90
48936;DHT22;34745;52.276;10.528;2023-02-15T01:51:24;1.90;99.90
48936;DHT22;34745;52.276;10.528;2023-02-15T01:53:59;1.90;99.90
48936;DHT22;34745;52.276;10.528;2023-02-15T01:56:30;1.90;99.90
48936;DHT22;34745;52.276;10.528;2023-02-15T01:59:02;1.90;99.90
48936;DHT22;34745;52.276;10.528;2023-02-15T02:01:30;1.80;99.90
48936;DHT22;34745;52.276;10.528;2023-02-15T02:04:05;1.70;99.90
48936;DHT22;34745;52.276;10.528;2023-02-15T02:06:35;1.70;99.90
48936;DHT22;34745;52.276;10.528;2023-02-15T02:09:03;1.70;99.90
48936;DHT22;34745;52.276;10.528;2023-02-15T02:11:30;1.70;99.90
48936;DHT22;34745;52.276;10.528;2023-02-15T02:13:58;1.70;99.90
48936;DHT22;34745;52.276;10.528;2023-02-15T02:16:28;1.70;99.90
48936;DHT22;34745;52.276;10.528;2023-02-15T02:19:10;1.70;99.90
48936;DHT22;34745;52.276;10.528;2023-02-15T02:25:17;1.60;99.90
48936;DHT22;34745;52.276;10.528;2023-02-15T02:27:56;1.60;99.90
48936;DHT22;34745;52.276;10.528;2023-02-15T02:33:51;1.70;99.90
48936;DHT22;34745;52.276;10.528;2023-02-15T02:36:26;1.70;99.90
48936;DHT22;34745;52.276;10.528;2023-02-15T02:39:09;1.70;99.90
48936;DHT22;34745;52.276;10.528;2023-02-15T02:41:45;1.60;99.90
48936;DHT22;34745;52.276;10.528;2023-02-15T02:44:19;1.70;99.90
48936;DHT22;34745;52.276;10.528;2023-02-15T02:46:53;1.70;99.90
48936;DHT22;34745;52.276;10.528;2023-02-15T02:49:33;1.70;99.90
48936;DHT22;34745;52.276;10.528;2023-02-15T02:52:02;1.60;99.90
48936;DHT22;34745;52.276;10.528;2023-02-15T02:54:30;1.50;99.90
48936;DHT22;34745;52.276;10.528;2023-02-15T02:57:00;1.50;99.90
48936;DHT22;34745;52.276;10.528;2023-02-15T02:59:31;1.50;99.90
48936;DHT22;34745;52.276;10.528;2023-02-15T03:02:02;1.50;99.90
48936;DHT22;34745;52.276;10.528;2023-02-15T03:04:35;1.40;99.90
48936;DHT22;34745;52.276;10.528;2023-02-15T03:07:07;1.40;99.90
48936;DHT22;34745;52.276;10.528;2023-02-15T03:09:38;1.30;99.90
48936;DHT22;34745;52.276;10.528;2023-02-15T03:12:11;1.20;99.90
48936;DHT22;34745;52.276;10.528;2023-02-15T03:14:41;1.30;99.90
48936;DHT22;34745;52.276;10.528;2023-02-15T03:17:11;1.20;99.90
48936;DHT22;34745;52.276;10.528;2023-02-15T03:19:44;1.20;99.90
48936;DHT22;34745;52.276;10.528;2023-02-15T03:22:14;1.20;99.90
48936;DHT22;34745;52.276;10.528;2023-02-15T03:24:51;1.20;99.90
48936;DHT22;34745;52.276;10.528;2023-02-15T03:27:23;1.20;99.90
48936;DHT22;34745;52.276;10.528;2023-02-15T03:29:54;1.20;99.90
48936;DHT22;34745;52.276;10.528;2023-02-15T03:32:23;1.20;99.90
48936;DHT22;34745;52.276;10.528;2023-02-15T03:34:52;1.10;99.90
48936;DHT22;34745;52.276;10.528;2023-02-15T03:37:24;1.10;99.90
48936;DHT22;34745;52.276;10.528;2023-02-15T03:39:55;1.10;99.90
48936;DHT22;34745;52.276;10.528;2023-02-15T03:42:26;1.20;99.90
48936;DHT22;34745;52.276;10.528;2023-02-15T03:44:58;1.20;99.90
48936;DHT22;34745;52.276;10.528;2023-02-15T03:47:29;1.20;99.90
48936;DHT22;34745;52.276;10.528;2023-02-15T03:50:01;1.10;99.90
48936;DHT22;34745;52.276;10.528;2023-02-15T03:52:31;1.10;99.90
48936;DHT22;34745;52.276;10.528;2023-02-15T03:54:59;1.00;99.90
48936;DHT22;34745;52.276;10.528;2023-02-15T03:57:28;1.00;99.90
48936;DHT22;34745;52.276;10.528;2023-02-15T04:00:16;1.10;99.90
48936;DHT22;34745;52.276;10.528;2023-02-15T04:03:11;1.10;99.90
48936;DHT22;34745;52.276;10.528;2023-02-15T04:05:41;1.10;99.90
48936;DHT22;34745;52.276;10.528;2023-02-15T04:08:09;1.10;99.90
48936;DHT22;34745;52.276;10.528;2023-02-15T04:10:36;1.10;99.90
48936;DHT22;34745;52.276;10.528;2023-02-15T04:13:23;1.10;99.90
48936;DHT22;34745;52.276;10.528;2023-02-15T04:15:51;1.10;99.90
48936;DHT22;34745;52.276;10.528;2023-02-15T04:18:36;1.00;99.90
48936;DHT22;34745;52.276;10.528;2023-02-15T04:21:24;1.10;99.90
48936;DHT22;34745;52.276;10.528;2023-02-15T04:24:11;1.00;99.90
48936;DHT22;34745;52.276;10.528;2023-02-15T04:26:57;1.00;99.90
48936;DHT22;34745;52.276;10.528;2023-02-15T04:29:25;1.00;99.90
48936;DHT22;34745;52.276;10.528;2023-02-15T04:31:54;1.00;99.90
48936;DHT22;34745;52.276;10.528;2023-02-15T04:34:22;1.10;99.90
48936;DHT22;34745;52.276;10.528;2023-02-15T04:36:50;1.10;99.90
48936;DHT22;34745;52.276;10.528;2023-02-15T04:39:18;1.00;99.90
48936;DHT22;34745;52.276;10.528;2023-02-15T04:41:46;1.00;99.90
48936;DHT22;34745;52.276;10.528;2023-02-15T04:44:14;1.00;99.90
48936;DHT22;34745;52.276;10.528;2023-02-15T04:46:41;1.00;99.90
48936;DHT22;34745;52.276;10.528;2023-02-15T04:49:09;1.00;99.90
48936;DHT22;34745;52.276;10.528;2023-02-15T04:51:36;1.00;99.90
48936;DHT22;34745;52.276;10.528;2023-02-15T04:54:04;1.00;99.90
48936;DHT22;34745;52.276;10.528;2023-02-15T04:56:32;1.00;99.90
48936;DHT22;34745;52.276;10.528;2023-02-15T04:59:01;1.00;99.90
48936;DHT22;34745;52.276;10.528;2023-02-15T05:01:28;1.10;99.90
48936;DHT22;34745;52.276;10.528;2023-02-15T05:03:55;1.10;99.90
48936;DHT22;34745;52.276;10.528;2023-02-15T05:06:22;1.00;99.90
48936;DHT22;34745;52.276;10.528;2023-02-15T05:08:49;1.00;99.90
48936;DHT22;34745;52.276;10.528;2023-02-15T05:11:19;1.10;99.90
48936;DHT22;34745;52.276;10.528;2023-02-15T05:13:46;1.10;99.90
48936;DHT22;34745;52.276;10.528;2023-02-15T05:16:13;1.10;99.90
48936;DHT22;34745;52.276;10.528;2023-02-15T05:18:40;1.00;99.90
48936;DHT22;34745;52.276;10.528;2023-02-15T05:21:08;1.00;99.90
48936;DHT22;34745;52.276;10.528;2023-02-15T05:23:35;1.00;99.90
48936;DHT22;34745;52.276;10.528;2023-02-15T05:26:03;0.90;99.90
48936;DHT22;34745;52.276;10.528;2023-02-15T05:28:50;0.90;99.90
48936;DHT22;34745;52.276;10.528;2023-02-15T05:31:18;0.90;99.90
48936;DHT22;34745;52.276;10.528;2023-02-15T05:33:46;0.90;99.90
48936;DHT22;34745;52.276;10.528;2023-02-15T05:36:13;0.90;99.90
48936;DHT22;34745;52.276;10.528;2023-02-15T05:38:40;0.90;99.90
48936;DHT22;34745;52.276;10.528;2023-02-15T05:41:09;0.90;99.90
48936;DHT22;34745;52.276;10.528;2023-02-15T05:43:36;0.90;99.90
48936;DHT22;34745;52.276;10.528;2023-02-15T05:46:05;1.00;99.90
48936;DHT22;34745;52.276;10.528;2023-02-15T05:48:33;1.00;99.90
48936;DHT22;34745;52.276;10.528;2023-02-15T05:51:02;1.00;99.90
48936;DHT22;34745;52.276;10.528;2023-02-15T05:53:32;1.00;99.90
48936;DHT22;34745;52.276;10.528;2023-02-15T05:56:00;0.90;99.90
48936;DHT22;34745;52.276;10.528;2023-02-15T05:58:29;0.90;99.90
48936;DHT22;34745;52.276;10.528;2023-02-15T06:00:56;0.90;99.90
48936;DHT22;34745;52.276;10.528;2023-02-15T06:03:25;0.90;99.90
48936;DHT22;34745;52.276;10.528;2023-02-15T06:05:55;0.90;99.90
48936;DHT22;34745;52.276;10.528;2023-02-15T06:08:22;0.80;99.90
48936;DHT22;34745;52.276;10.528;2023-02-15T06:10:49;0.80;99.90
48936;DHT22;34745;52.276;10.528;2023-02-15T06:13:16;0.80;99.90
48936;DHT22;34745;52.276;10.528;2023-02-15T06:15:43;0.70;99.90
48936;DHT22;34745;52.276;10.528;2023-02-15T06:18:10;0.80;99.90
48936;DHT22;34745;52.276;10.528;2023-02-15T06:20:38;0.70;99.90
48936;DHT22;34745;52.276;10.528;2023-02-15T06:23:06;0.70;99.90
48936;DHT22;34745;52.276;10.528;2023-02-15T06:25:33;0.60;99.90
48936;DHT22;34745;52.276;10.528;2023-02-15T06:28:02;0.60;99.90
48936;DHT22;34745;52.276;10.528;2023-02-15T06:30:29;0.60;99.90
48936;DHT22;34745;52.276;10.528;2023-02-15T06:32:57;0.60;99.90
48936;DHT22;34745;52.276;10.528;2023-02-15T06:35:23;0.60;99.90
48936;DHT22;34745;52.276;10.528;2023-02-15T06:37:52;0.60;99.90
48936;DHT22;34745;52.276;10.528;2023-02-15T06:40:19;0.60;99.90
48936;DHT22;34745;52.276;10.528;2023-02-15T06:42:47;0.60;99.90
48936;DHT22;34745;52.276;10.528;2023-02-15T06:45:14;0.60;99.90
48936;DHT22;34745;52.276;10.528;2023-02-15T06:47:41;0.50;99.90
48936;DHT22;34745;52.276;10.528;2023-02-15T06:50:09;0.60;99.90
48936;DHT22;34745;52.276;10.528;2023-02-15T06:52:37;0.60;99.90
48936;DHT22;34745;52.276;10.528;2023-02-15T06:55:06;0.70;99.90
48936;DHT22;34745;52.276;10.528;2023-02-15T06:57:33;0.70;99.90
48936;DHT22;34745;52.276;10.528;2023-02-15T07:00:00;0.70;99.90
48936;DHT22;34745;52.276;10.528;2023-02-15T07:02:28;0.70;99.90
48936;DHT22;34745;52.276;10.528;2023-02-15T07:04:55;0.70;99.90
48936;DHT22;34745;52.276;10.528;2023-02-15T07:07:22;0.80;99.90
48936;DHT22;34745;52.276;10.528;2023-02-15T07:09:49;0.80;99.90
48936;DHT22;34745;52.276;10.528;2023-02-15T07:12:18;0.90;99.90
48936;DHT22;34745;52.276;10.528;2023-02-15T07:15:04;0.90;99.90
48936;DHT22;34745;52.276;10.528;2023-02-15T07:17:33;1.00;99.90
48936;DHT22;34745;52.276;10.528;2023-02-15T07:20:03;1.00;99.90
48936;DHT22;34745;52.276;10.528;2023-02-15T07:22:30;1.00;99.90
48936;DHT22;34745;52.276;10.528;2023-02-15T07:24:57;1.10;99.90
48936;DHT22;34745;52.276;10.528;2023-02-15T07:27:26;1.00;99.90
48936;DHT22;34745;52.276;10.528;2023-02-15T07:29:53;1.00;99.90
48936;DHT22;34745;52.276;10.528;2023-02-15T07:32:20;1.10;99.90
48936;DHT22;34745;52.276;10.528;2023-02-15T07:34:47;1.20;99.90
48936;DHT22;34745;52.276;10.528;2023-02-15T07:37:14;1.20;99.90
48936;DHT22;34745;52.276;10.528;2023-02-15T07:39:41;1.30;99.90
48936;DHT22;34745;52.276;10.528;2023-02-15T07:42:08;1.30;99.90
48936;DHT22;34745;52.276;10.528;2023-02-15T07:44:37;1.40;99.90
48936;DHT22;34745;52.276;10.528;2023-02-15T07:47:04;1.50;99.90
48936;DHT22;34745;52.276;10.528;2023-02-15T07:49:31;1.60;99.90
48936;DHT22;34745;52.276;10.528;2023-02-15T07:52:00;1.60;99.90
48936;DHT22;34745;52.276;10.528;2023-02-15T07:54:28;1.70;99.90
48936;DHT22;34745;52.276;10.528;2023-02-15T07:56:55;1.70;99.90
48936;DHT22;34745;52.276;10.528;2023-02-15T07:59:22;1.80;99.90
48936;DHT22;34745;52.276;10.528;2023-02-15T08:01:52;1.80;99.90
48936;DHT22;34745;52.276;10.528;2023-02-15T08:04:20;1.90;99.90
48936;DHT22;34745;52.276;10.528;2023-02-15T08:06:47;2.00;99.90
48936;DHT22;34745;52.276;10.528;2023-02-15T08:09:18;2.00;99.90
48936;DHT22;34745;52.276;10.528;2023-02-15T08:11:47;2.20;99.90
48936;DHT22;34745;52.276;10.528;2023-02-15T08:14:15;2.30;99.90
48936;DHT22;34745;52.276;10.528;2023-02-15T08:16:44;2.50;99.90
48936;DHT22;34745;52.276;10.528;2023-02-15T08:19:14;2.60;99.90
48936;DHT22;34745;52.276;10.528;2023-02-15T08:21:44;2.80;99.90
48936;DHT22;34745;52.276;10.528;2023-02-15T08:24:13;2.90;99.90
48936;DHT22;34745;52.276;10.528;2023-02-15T08:26:40;3.00;99.90
48936;DHT22;34745;52.276;10.528;2023-02-15T08:29:09;3.00;99.90
48936;DHT22;34745;52.276;10.528;2023-02-15T08:31:36;3.00;99.90
48936;DHT22;34745;52.276;10.528;2023-02-15T08:34:05;3.00;99.90
48936;DHT22;34745;52.276;10.528;2023-02-15T08:36:34;3.10;99.90
48936;DHT22;34745;52.276;10.528;2023-02-15T08:39:03;3.20;99.90
48936;DHT22;34745;52.276;10.528;2023-02-15T08:41:32;3.40;99.90
48936;DHT22;34745;52.276;10.528;2023-02-15T08:44:02;3.50;99.90
48936;DHT22;34745;52.276;10.528;2023-02-15T08:46:31;3.60;99.90
48936;DHT22;34745;52.276;10.528;2023-02-15T08:48:58;3.70;99.90
48936;DHT22;34745;52.276;10.528;2023-02-15T08:51:28;3.80;99.90
48936;DHT22;34745;52.276;10.528;2023-02-15T08:53:58;4.00;99.90
48936;DHT22;34745;52.276;10.528;2023-02-15T08:56:27;4.00;99.90
48936;DHT22;34745;52.276;10.528;2023-02-15T08:58:55;4.10;99.90
48936;DHT22;34745;52.276;10.528;2023-02-15T09:01:24;4.10;99.90
48936;DHT22;34745;52.276;10.528;2023-02-15T09:03:55;4.20;99.90
48936;DHT22;34745;52.276;10.528;2023-02-15T09:06:22;4.20;99.90
48936;DHT22;34745;52.276;10.528;2023-02-15T09:08:50;4.30;99.90
48936;DHT22;34745;52.276;10.528;2023-02-15T09:11:20;4.20;99.90
48936;DHT22;34745;52.276;10.528;2023-02-15T09:13:53;4.30;99.90
48936;DHT22;34745;52.276;10.528;2023-02-15T09:16:23;4.40;99.90
48936;DHT22;34745;52.276;10.528;2023-02-15T09:18:51;4.40;99.90
48936;DHT22;34745;52.276;10.528;2023-02-15T09:21:20;4.50;99.90
48936;DHT22;34745;52.276;10.528;2023-02-15T09:23:50;4.40;99.90
48936;DHT22;34745;52.276;10.528;2023-02-15T09:26:20;4.60;99.90
48936;DHT22;34745;52.276;10.528;2023-02-15T09:28:50;4.80;99.90
48936;DHT22;34745;52.276;10.528;2023-02-15T09:31:20;4.90;73.70
48936;DHT22;34745;52.276;10.528;2023-02-15T09:33:49;5.00;60.60
48936;DHT22;34745;52.276;10.528;2023-02-15T09:36:18;5.10;51.20
48936;DHT22;34745;52.276;10.528;2023-02-15T09:38:46;5.10;47.80
48936;DHT22;34745;52.276;10.528;2023-02-15T09:41:44;5.20;37.20
48936;DHT22;34745;52.276;10.528;2023-02-15T09:44:26;5.20;41.50
48936;DHT22;34745;52.276;10.528;2023-02-15T09:47:04;5.20;44.50
48936;DHT22;34745;52.276;10.528;2023-02-15T09:49:40;5.20;41.40
48936;DHT22;34745;52.276;10.528;2023-02-15T09:52:39;5.30;51.00
48936;DHT22;34745;52.276;10.528;2023-02-15T09:55:19;5.40;46.50
48936;DHT22;34745;52.276;10.528;2023-02-15T09:57:57;5.50;48.00
48936;DHT22;34745;52.276;10.528;2023-02-15T10:00:31;5.60;31.80
48936;DHT22;34745;52.276;10.528;2023-02-15T10:03:11;5.70;24.10
48936;DHT22;34745;52.276;10.528;2023-02-15T10:05:51;5.80;19.30
48936;DHT22;34745;52.276;10.528;2023-02-15T10:08:40;5.90;1.10
48936;DHT22;34745;52.276;10.528;2023-02-15T10:11:17;6.00;1.00
48936;DHT22;34745;52.276;10.528;2023-02-15T10:14:40;6.20;1.00
48936;DHT22;34745;52.276;10.528;2023-02-15T10:17:20;6.20;1.00
48936;DHT22;34745;52.276;10.528;2023-02-15T10:19:58;6.20;1.00
48936;DHT22;34745;52.276;10.528;2023-02-15T10:22:38;6.30;1.00
48936;DHT22;34745;52.276;10.528;2023-02-15T10:25:27;6.30;1.00
48936;DHT22;34745;52.276;10.528;2023-02-15T10:28:02;6.50;1.00
48936;DHT22;34745;52.276;10.528;2023-02-15T10:30:40;6.70;1.00
48936;DHT22;34745;52.276;10.528;2023-02-15T10:33:18;7.00;1.00
48936;DHT22;34745;52.276;10.528;2023-02-15T10:35:58;7.50;1.00
48936;DHT22;34745;52.276;10.528;2023-02-15T10:38:34;8.20;1.00
48936;DHT22;34745;52.276;10.528;2023-02-15T10:41:14;8.90;1.00
48936;DHT22;34745;52.276;10.528;2023-02-15T10:43:55;9.60;1.00
48936;DHT22;34745;52.276;10.528;2023-02-15T10:46:51;10.10;1.00
48936;DHT22;34745;52.276;10.528;2023-02-15T10:49:47;10.90;1.00
48936;DHT22;34745;52.276;10.528;2023-02-15T10:52:25;11.70;1.00
48936;DHT22;34745;52.276;10.528;2023-02-15T10:55:01;12.10;1.00
48936;DHT22;34745;52.276;10.528;2023-02-15T10:57:36;12.70;1.00
48936;DHT22;34745;52.276;10.528;2023-02-15T11:00:10;13.00;1.00
48936;DHT22;34745;52.276;10.528;2023-02-15T11:02:53;12.80;1.00
48936;DHT22;34745;52.276;10.528;2023-02-15T11:05:30;12.70;1.00
48936;DHT22;34745;52.276;10.528;2023-02-15T11:08:06;12.20;1.00
48936;DHT22;34745;52.276;10.528;2023-02-15T11:10:36;12.00;1.00
48936;DHT22;34745;52.276;10.528;2023-02-15T11:13:09;11.80;1.00
48936;DHT22;34745;52.276;10.528;2023-02-15T11:15:41;11.20;1.00
48936;DHT22;34745;52.276;10.528;2023-02-15T11:18:14;11.10;1.00
48936;DHT22;34745;52.276;10.528;2023-02-15T11:20:50;11.00;1.00
48936;DHT22;34745;52.276;10.528;2023-02-15T11:23:21;10.90;1.00
48936;DHT22;34745;52.276;10.528;2023-02-15T11:25:55;10.80;1.00
48936;DHT22;34745;52.276;10.528;2023-02-15T11:28:24;10.80;1.00
48936;DHT22;34745;52.276;10.528;2023-02-15T11:30:55;10.80;1.00
48936;DHT22;34745;52.276;10.528;2023-02-15T11:33:27;10.70;1.00
48936;DHT22;34745;52.276;10.528;2023-02-15T11:36:00;10.70;1.00
48936;DHT22;34745;52.276;10.528;2023-02-15T11:38:31;10.80;1.00
48936;DHT22;34745;52.276;10.528;2023-02-15T11:41:02;10.70;1.00
48936;DHT22;34745;52.276;10.528;2023-02-15T11:43:35;10.90;1.00
48936;DHT22;34745;52.276;10.528;2023-02-15T11:46:03;11.60;1.00
48936;DHT22;34745;52.276;10.528;2023-02-15T11:48:32;12.30;1.00
48936;DHT22;34745;52.276;10.528;2023-02-15T11:51:02;13.30;1.00
48936;DHT22;34745;52.276;10.528;2023-02-15T11:53:32;13.60;1.00
48936;DHT22;34745;52.276;10.528;2023-02-15T11:56:01;14.00;1.00
48936;DHT22;34745;52.276;10.528;2023-02-15T11:58:33;14.50;1.00
48936;DHT22;34745;52.276;10.528;2023-02-15T12:01:09;14.90;1.00
48936;DHT22;34745;52.276;10.528;2023-02-15T12:03:44;15.00;1.00
48936;DHT22;34745;52.276;10.528;2023-02-15T12:06:18;15.40;1.00
48936;DHT22;34745;52.276;10.528;2023-02-15T12:08:50;16.20;1.00
48936;DHT22;34745;52.276;10.528;2023-02-15T12:11:22;16.80;99.90
48936;DHT22;34745;52.276;10.528;2023-02-15T12:13:57;16.90;99.90
48936;DHT22;34745;52.276;10.528;2023-02-15T12:16:25;17.00;99.90
48936;DHT22;34745;52.276;10.528;2023-02-15T12:18:56;16.80;99.90
48936;DHT22;34745;52.276;10.528;2023-02-15T12:21:27;17.70;99.90
48936;DHT22;34745;52.276;10.528;2023-02-15T12:23:57;19.10;99.90
48936;DHT22;34745;52.276;10.528;2023-02-15T12:26:26;19.60;99.90
48936;DHT22;34745;52.276;10.528;2023-02-15T12:28:57;19.80;99.90
48936;DHT22;34745;52.276;10.528;2023-02-15T12:31:31;20.00;99.90
48936;DHT22;34745;52.276;10.528;2023-02-15T12:34:03;19.90;99.90
48936;DHT22;34745;52.276;10.528;2023-02-15T12:36:41;20.20;99.90
48936;DHT22;34745;52.276;10.528;2023-02-15T12:39:19;19.90;99.90
48936;DHT22;34745;52.276;10.528;2023-02-15T12:42:01;19.50;99.90
48936;DHT22;34745;52.276;10.528;2023-02-15T12:44:31;19.70;99.90
48936;DHT22;34745;52.276;10.528;2023-02-15T12:47:01;20.10;99.90
48936;DHT22;34745;52.276;10.528;2023-02-15T12:49:31;20.20;99.90
48936;DHT22;34745;52.276;10.528;2023-02-15T12:51:59;20.50;99.90
48936;DHT22;34745;52.276;10.528;2023-02-15T12:54:35;20.00;99.90
48936;DHT22;34745;52.276;10.528;2023-02-15T12:57:15;19.90;99.90
48936;DHT22;34745;52.276;10.528;2023-02-15T12:59:51;20.10;99.90
48936;DHT22;34745;52.276;10.528;2023-02-15T13:02:28;20.10;99.90
48936;DHT22;34745;52.276;10.528;2023-02-15T13:05:05;20.00;99.90
48936;DHT22;34745;52.276;10.528;2023-02-15T13:07:37;20.00;99.90
48936;DHT22;34745;52.276;10.528;2023-02-15T13:10:05;19.50;99.90
48936;DHT22;34745;52.276;10.528;2023-02-15T13:12:46;19.50;99.90
48936;DHT22;34745;52.276;10.528;2023-02-15T13:15:25;20.30;99.90
48936;DHT22;34745;52.276;10.528;2023-02-15T13:17:55;19.70;99.90
48936;DHT22;34745;52.276;10.528;2023-02-15T13:20:24;19.30;99.90
48936;DHT22;34745;52.276;10.528;2023-02-15T13:22:58;19.50;99.90
48936;DHT22;34745;52.276;10.528;2023-02-15T13:25:28;19.10;99.90
48936;DHT22;34745;52.276;10.528;2023-02-15T13:27:59;18.30;99.90
48936;DHT22;34745;52.276;10.528;2023-02-15T13:30:29;17.50;99.90
48936;DHT22;34745;52.276;10.528;2023-02-15T13:33:02;16.70;99.90
48936;DHT22;34745;52.276;10.528;2023-02-15T13:35:39;16.30;99.90
48936;DHT22;34745;52.276;10.528;2023-02-15T13:38:29;15.70;1.00
48936;DHT22;34745;52.276;10.528;2023-02-15T13:41:05;15.30;1.00
48936;DHT22;34745;52.276;10.528;2023-02-15T13:43:43;15.30;1.00
48936;DHT22;34745;52.276;10.528;2023-02-15T13:46:34;15.00;1.00
48936;DHT22;34745;52.276;10.528;2023-02-15T13:49:13;15.00;1.00
48936;DHT22;34745;52.276;10.528;2023-02-15T13:51:52;15.10;1.00
48936;DHT22;34745;52.276;10.528;2023-02-15T13:54:47;15.30;1.00
48936;DHT22;34745;52.276;10.528;2023-02-15T13:57:40;15.60;1.00
48936;DHT22;34745;52.276;10.528;2023-02-15T14:00:17;15.50;1.00
48936;DHT22;34745;52.276;10.528;2023-02-15T14:03:28;15.50;1.00
48936;DHT22;34745;52.276;10.528;2023-02-15T14:06:18;15.20;1.00
48936;DHT22;34745;52.276;10.528;2023-02-15T14:08:59;16.20;1.00
48936;DHT22;34745;52.276;10.528;2023-02-15T14:11:34;17.20;99.90
48936;DHT22;34745;52.276;10.528;2023-02-15T14:17:13;17.70;99.90
48936;DHT22;34745;52.276;10.528;2023-02-15T14:19:46;17.50;99.90
48936;DHT22;34745;52.276;10.528;2023-02-15T14:22:23;17.10;99.90
48936;DHT22;34745;52.276;10.528;2023-02-15T14:25:03;15.40;1.00
48936;DHT22;34745;52.276;10.528;2023-02-15T14:27:43;14.20;1.00
48936;DHT22;34745;52.276;10.528;2023-02-15T14:30:16;13.40;1.00
48936;DHT22;34745;52.276;10.528;2023-02-15T14:32:47;12.50;1.00
48936;DHT22;34745;52.276;10.528;2023-02-15T14:35:18;12.10;1.00
48936;DHT22;34745;52.276;10.528;2023-02-15T14:37:50;11.70;1.00
48936;DHT22;34745;52.276;10.528;2023-02-15T14:40:32;11.60;1.00
48936;DHT22;34745;52.276;10.528;2023-02-15T14:43:26;11.30;1.00
48936;DHT22;34745;52.276;10.528;2023-02-15T14:46:03;11.10;1.00
48936;DHT22;34745;52.276;10.528;2023-02-15T14:48:38;10.80;1.00
48936;DHT22;34745;52.276;10.528;2023-02-15T14:51:06;10.70;1.00
48936;DHT22;34745;52.276;10.528;2023-02-15T14:53:35;10.60;1.00
48936;DHT22;34745;52.276;10.528;2023-02-15T14:56:17;10.60;1.00
48936;DHT22;34745;52.276;10.528;2023-02-15T14:59:13;10.50;1.00
48936;DHT22;34745;52.276;10.528;2023-02-15T15:01:42;10.30;1.00
48936;DHT22;34745;52.276;10.528;2023-02-15T15:04:12;10.20;1.00
48936;DHT22;34745;52.276;10.528;2023-02-15T15:06:42;10.10;1.00
48936;DHT22;34745;52.276;10.528;2023-02-15T15:09:13;10.10;1.00
48936;DHT22;34745;52.276;10.528;2023-02-15T15:11:47;10.10;1.00
48936;DHT22;34745;52.276;10.528;2023-02-15T15:14:36;10.00;1.00
48936;DHT22;34745;52.276;10.528;2023-02-15T15:17:05;9.90;1.00
48936;DHT22;34745;52.276;10.528;2023-02-15T15:20:05;9.90;1.00
48936;DHT22;34745;52.276;10.528;2023-02-15T15:22:35;10.00;1.00
48936;DHT22;34745;52.276;10.528;2023-02-15T15:25:07;10.00;1.00
48936;DHT22;34745;52.276;10.528;2023-02-15T15:27:39;10.00;1.00
48936;DHT22;34745;52.276;10.528;2023-02-15T15:40:13;9.70;1.00
48936;DHT22;34745;52.276;10.528;2023-02-15T15:42:49;9.60;1.00
48936;DHT22;34745;52.276;10.528;2023-02-15T15:45:46;9.60;1.00
48936;DHT22;34745;52.276;10.528;2023-02-15T15:48:31;9.60;1.00
48936;DHT22;34745;52.276;10.528;2023-02-15T15:51:01;9.60;1.00
48936;DHT22;34745;52.276;10.528;2023-02-15T15:53:32;9.50;1.00
48936;DHT22;34745;52.276;10.528;2023-02-15T15:56:03;9.40;1.00
48936;DHT22;34745;52.276;10.528;2023-02-15T15:58:34;9.40;1.00
48936;DHT22;34745;52.276;10.528;2023-02-15T16:01:05;9.30;1.00
48936;DHT22;34745;52.276;10.528;2023-02-15T16:03:34;9.20;1.00
48936;DHT22;34745;52.276;10.528;2023-02-15T16:06:01;9.20;1.00
48936;DHT22;34745;52.276;10.528;2023-02-15T16:08:32;9.10;1.00
48936;DHT22;34745;52.276;10.528;2023-02-15T16:11:01;9.10;1.00
48936;DHT22;34745;52.276;10.528;2023-02-15T16:13:35;9.00;1.00
48936;DHT22;34745;52.276;10.528;2023-02-15T16:16:03;8.90;1.00
48936;DHT22;34745;52.276;10.528;2023-02-15T16:18:31;8.80;1.00
48936;DHT22;34745;52.276;10.528;2023-02-15T16:21:01;8.70;1.00
48936;DHT22;34745;52.276;10.528;2023-02-15T16:24:04;8.50;1.00